sensor_id;sensor_type;location;lat;lon;timestamp;temperature;humidity
43695;DHT22;29300;43.560;1.294;2022-12-13T00:01:49;3.80;99.90
43695;DHT22;29300;43.560;1.294;2022-12-13T00:04:16;3.90;99.90
43695;DHT22;29300;43.560;1.294;2022-12-13T00:06:42;3.80;99.90
43695;DHT22;29300;43.560;1.294;2022-12-13T00:09:09;3.70;99.90
43695;DHT22;29300;43.560;1.294;2022-12-13T00:11:37;3.80;99.90
43695;DHT22;29300;43.560;1.294;2022-12-13T00:14:02;3.80;99.90
43695;DHT22;29300;43.560;1.294;2022-12-13T00:16:28;3.90;99.90
43695;DHT22;29300;43.560;1.294;2022-12-13T00:18:56;3.90;99.90
43695;DHT22;29300;43.560;1.294;2022-12-13T00:21:24;3.80;99.90
43695;DHT22;29300;43.560;1.294;2022-12-13T00:23:51;3.80;99.90
43695;DHT22;29300;43.560;1.294;2022-12-13T00:26:20;3.90;99.90
43695;DHT22;29300;43.560;1.294;2022-12-13T00:28:47;3.80;99.90
43695;DHT22;29300;43.560;1.294;2022-12-13T00:31:14;3.80;99.90
43695;DHT22;29300;43.560;1.294;2022-12-13T00:33:40;3.90;99.90
43695;DHT22;29300;43.560;1.294;2022-12-13T00:36:07;3.80;99.90
43695;DHT22;29300;43.560;1.294;2022-12-13T00:38:34;3.90;99.90
43695;DHT22;29300;43.560;1.294;2022-12-13T00:41:09;3.90;99.90
43695;DHT22;29300;43.560;1.294;2022-12-13T00:43:35;3.80;99.90
43695;DHT22;29300;43.560;1.294;2022-12-13T00:46:01;3.80;99.90
43695;DHT22;29300;43.560;1.294;2022-12-13T00:48:26;3.80;99.90
43695;DHT22;29300;43.560;1.294;2022-12-13T00:50:52;3.70;99.90
43695;DHT22;29300;43.560;1.294;2022-12-13T00:53:18;3.80;99.90
43695;DHT22;29300;43.560;1.294;2022-12-13T00:55:44;3.70;99.90
43695;DHT22;29300;43.560;1.294;2022-12-13T00:58:09;3.60;99.90
43695;DHT22;29300;43.560;1.294;2022-12-13T01:00:35;3.60;99.90
43695;DHT22;29300;43.560;1.294;2022-12-13T01:03:01;3.60;99.90
43695;DHT22;29300;43.560;1.294;2022-12-13T01:05:47;3.60;99.90
43695;DHT22;29300;43.560;1.294;2022-12-13T01:08:13;3.60;99.90
43695;DHT22;29300;43.560;1.294;2022-12-13T01:10:43;3.60;99.90
43695;DHT22;29300;43.560;1.294;2022-12-13T01:13:10;3.60;99.90
43695;DHT22;29300;43.560;1.294;2022-12-13T01:15:43;3.60;99.90
43695;DHT22;29300;43.560;1.294;2022-12-13T01:18:09;3.50;99.90
43695;DHT22;29300;43.560;1.294;2022-12-13T01:20:35;3.60;99.90
43695;DHT22;29300;43.560;1.294;2022-12-13T01:23:01;3.60;99.90
43695;DHT22;29300;43.560;1.294;2022-12-13T01:25:27;3.60;99.90
43695;DHT22;29300;43.560;1.294;2022-12-13T01:27:53;3.80;99.90
43695;DHT22;29300;43.560;1.294;2022-12-13T01:30:19;3.70;99.90
43695;DHT22;29300;43.560;1.294;2022-12-13T01:32:44;3.80;99.90
43695;DHT22;29300;43.560;1.294;2022-12-13T01:35:10;3.80;99.90
43695;DHT22;29300;43.560;1.294;2022-12-13T01:37:38;3.70;99.90
43695;DHT22;29300;43.560;1.294;2022-12-13T01:40:04;3.80;99.90
43695;DHT22;29300;43.560;1.294;2022-12-13T01:42:30;3.90;99.90
43695;DHT22;29300;43.560;1.294;2022-12-13T01:44:57;3.90;99.90
43695;DHT22;29300;43.560;1.294;2022-12-13T01:47:39;3.90;99.90
43695;DHT22;29300;43.560;1.294;2022-12-13T01:50:18;3.90;99.90
43695;DHT22;29300;43.560;1.294;2022-12-13T01:52:45;4.00;99.90
43695;DHT22;29300;43.560;1.294;2022-12-13T01:55:12;4.00;99.90
43695;DHT22;29300;43.560;1.294;2022-12-13T01:57:41;4.00;99.90
43695;DHT22;29300;43.560;1.294;2022-12-13T02:00:08;4.00;99.90
43695;DHT22;29300;43.560;1.294;2022-12-13T02:02:35;4.10;99.90
43695;DHT22;29300;43.560;1.294;2022-12-13T02:05:12;4.10;99.90
43695;DHT22;29300;43.560;1.294;2022-12-13T02:07:42;4.10;99.90
43695;DHT22;29300;43.560;1.294;2022-12-13T02:10:09;4.10;99.90
43695;DHT22;29300;43.560;1.294;2022-12-13T02:12:36;4.10;99.90
43695;DHT22;29300;43.560;1.294;2022-12-13T02:15:09;4.20;99.90
43695;DHT22;29300;43.560;1.294;2022-12-13T02:29:37;4.10;99.90
43695;DHT22;29300;43.560;1.294;2022-12-13T02:35:02;4.20;99.90
43695;DHT22;29300;43.560;1.294;2022-12-13T02:37:50;4.10;99.90
43695;DHT22;29300;43.560;1.294;2022-12-13T02:40:30;4.00;99.90
43695;DHT22;29300;43.560;1.294;2022-12-13T02:43:04;4.00;99.90
43695;DHT22;29300;43.560;1.294;2022-12-13T02:45:46;3.90;99.90
43695;DHT22;29300;43.560;1.294;2022-12-13T02:48:15;4.00;99.90
43695;DHT22;29300;43.560;1.294;2022-12-13T02:50:42;4.00;99.90
43695;DHT22;29300;43.560;1.294;2022-12-13T02:53:10;4.00;99.90
43695;DHT22;29300;43.560;1.294;2022-12-13T02:55:38;4.00;99.90
43695;DHT22;29300;43.560;1.294;2022-12-13T02:58:04;3.90;99.90
43695;DHT22;29300;43.560;1.294;2022-12-13T03:14:30;4.00;99.90
43695;DHT22;29300;43.560;1.294;2022-12-13T03:17:01;4.00;99.90
43695;DHT22;29300;43.560;1.294;2022-12-13T03:19:29;3.90;99.90
43695;DHT22;29300;43.560;1.294;2022-12-13T03:21:55;3.80;99.90
43695;DHT22;29300;43.560;1.294;2022-12-13T03:24:21;3.80;99.90
43695;DHT22;29300;43.560;1.294;2022-12-13T03:26:48;3.90;99.90
43695;DHT22;29300;43.560;1.294;2022-12-13T03:29:15;3.90;99.90
43695;DHT22;29300;43.560;1.294;2022-12-13T03:31:41;3.80;99.90
43695;DHT22;29300;43.560;1.294;2022-12-13T03:34:07;3.90;99.90
43695;DHT22;29300;43.560;1.294;2022-12-13T03:36:32;3.90;99.90
43695;DHT22;29300;43.560;1.294;2022-12-13T03:38:58;3.90;99.90
43695;DHT22;29300;43.560;1.294;2022-12-13T03:41:26;3.90;99.90
43695;DHT22;29300;43.560;1.294;2022-12-13T03:43:58;3.90;99.90
43695;DHT22;29300;43.560;1.294;2022-12-13T03:46:23;3.90;99.90
43695;DHT22;29300;43.560;1.294;2022-12-13T03:48:49;4.00;99.90
43695;DHT22;29300;43.560;1.294;2022-12-13T03:51:15;4.00;99.90
43695;DHT22;29300;43.560;1.294;2022-12-13T03:53:40;4.10;99.90
43695;DHT22;29300;43.560;1.294;2022-12-13T03:56:06;4.10;99.90
43695;DHT22;29300;43.560;1.294;2022-12-13T03:58:33;4.00;99.90
43695;DHT22;29300;43.560;1.294;2022-12-13T04:00:59;4.10;99.90
43695;DHT22;29300;43.560;1.294;2022-12-13T04:03:25;4.00;99.90
43695;DHT22;29300;43.560;1.294;2022-12-13T04:05:50;4.00;99.90
43695;DHT22;29300;43.560;1.294;2022-12-13T04:08:16;4.10;99.90
43695;DHT22;29300;43.560;1.294;2022-12-13T04:10:42;4.10;99.90
43695;DHT22;29300;43.560;1.294;2022-12-13T04:13:09;4.10;99.90
43695;DHT22;29300;43.560;1.294;2022-12-13T04:15:53;4.10;99.90
43695;DHT22;29300;43.560;1.294;2022-12-13T04:18:19;4.20;99.90
43695;DHT22;29300;43.560;1.294;2022-12-13T04:20:48;4.20;99.90
43695;DHT22;29300;43.560;1.294;2022-12-13T04:23:13;4.10;99.90
43695;DHT22;29300;43.560;1.294;2022-12-13T04:25:40;4.00;99.90
43695;DHT22;29300;43.560;1.294;2022-12-13T04:28:06;4.10;99.90
43695;DHT22;29300;43.560;1.294;2022-12-13T04:30:32;4.10;99.90
43695;DHT22;29300;43.560;1.294;2022-12-13T04:32:59;4.20;99.90
43695;DHT22;29300;43.560;1.294;2022-12-13T04:35:25;4.20;99.90
43695;DHT22;29300;43.560;1.294;2022-12-13T04:37:51;4.10;99.90
43695;DHT22;29300;43.560;1.294;2022-12-13T04:40:16;4.10;99.90
43695;DHT22;29300;43.560;1.294;2022-12-13T04:42:42;4.20;99.90
43695;DHT22;29300;43.560;1.294;2022-12-13T04:45:08;4.20;99.90
43695;DHT22;29300;43.560;1.294;2022-12-13T04:47:38;4.30;99.90
43695;DHT22;29300;43.560;1.294;2022-12-13T04:50:04;4.40;99.90
43695;DHT22;29300;43.560;1.294;2022-12-13T04:52:30;4.30;99.90
43695;DHT22;29300;43.560;1.294;2022-12-13T04:54:55;4.30;99.90
43695;DHT22;29300;43.560;1.294;2022-12-13T04:57:21;4.30;99.90
43695;DHT22;29300;43.560;1.294;2022-12-13T04:59:47;4.40;99.90
43695;DHT22;29300;43.560;1.294;2022-12-13T05:02:12;4.50;99.90
43695;DHT22;29300;43.560;1.294;2022-12-13T05:04:38;4.40;99.90
43695;DHT22;29300;43.560;1.294;2022-12-13T05:07:04;4.40;99.90
43695;DHT22;29300;43.560;1.294;2022-12-13T05:09:30;4.50;99.90
43695;DHT22;29300;43.560;1.294;2022-12-13T05:11:56;4.40;99.90
43695;DHT22;29300;43.560;1.294;2022-12-13T05:14:21;4.30;99.90
43695;DHT22;29300;43.560;1.294;2022-12-13T05:16:47;4.30;99.90
43695;DHT22;29300;43.560;1.294;2022-12-13T05:19:13;4.30;99.90
43695;DHT22;29300;43.560;1.294;2022-12-13T05:21:38;4.20;99.90
43695;DHT22;29300;43.560;1.294;2022-12-13T05:24:04;4.20;99.90
43695;DHT22;29300;43.560;1.294;2022-12-13T05:26:31;4.30;99.90
43695;DHT22;29300;43.560;1.294;2022-12-13T05:28:57;4.20;99.90
43695;DHT22;29300;43.560;1.294;2022-12-13T05:31:22;4.20;99.90
43695;DHT22;29300;43.560;1.294;2022-12-13T05:33:48;4.40;99.90
43695;DHT22;29300;43.560;1.294;2022-12-13T05:36:14;4.30;99.90
43695;DHT22;29300;43.560;1.294;2022-12-13T05:38:40;4.30;99.90
43695;DHT22;29300;43.560;1.294;2022-12-13T05:41:06;4.20;99.90
43695;DHT22;29300;43.560;1.294;2022-12-13T05:43:34;4.20;99.90
43695;DHT22;29300;43.560;1.294;2022-12-13T05:46:00;4.20;99.90
43695;DHT22;29300;43.560;1.294;2022-12-13T05:48:26;4.20;99.90
43695;DHT22;29300;43.560;1.294;2022-12-13T05:50:51;4.20;99.90
43695;DHT22;29300;43.560;1.294;2022-12-13T05:53:17;4.10;99.90
43695;DHT22;29300;43.560;1.294;2022-12-13T05:55:43;4.10;99.90
43695;DHT22;29300;43.560;1.294;2022-12-13T05:58:09;4.10;99.90
43695;DHT22;29300;43.560;1.294;2022-12-13T06:00:37;4.20;99.90
43695;DHT22;29300;43.560;1.294;2022-12-13T06:03:03;4.20;99.90
43695;DHT22;29300;43.560;1.294;2022-12-13T06:05:29;4.20;99.90
43695;DHT22;29300;43.560;1.294;2022-12-13T06:07:55;4.20;99.90
43695;DHT22;29300;43.560;1.294;2022-12-13T06:10:21;4.30;99.90
43695;DHT22;29300;43.560;1.294;2022-12-13T06:12:47;4.30;99.90
43695;DHT22;29300;43.560;1.294;2022-12-13T06:15:13;4.30;99.90
43695;DHT22;29300;43.560;1.294;2022-12-13T06:17:39;4.40;99.90
43695;DHT22;29300;43.560;1.294;2022-12-13T06:20:05;4.40;99.90
43695;DHT22;29300;43.560;1.294;2022-12-13T06:22:31;4.40;99.90
43695;DHT22;29300;43.560;1.294;2022-12-13T06:24:57;4.50;99.90
43695;DHT22;29300;43.560;1.294;2022-12-13T06:27:23;4.60;99.90
43695;DHT22;29300;43.560;1.294;2022-12-13T06:29:48;4.50;99.90
43695;DHT22;29300;43.560;1.294;2022-12-13T06:32:14;4.60;99.90
43695;DHT22;29300;43.560;1.294;2022-12-13T06:34:40;4.60;99.90
43695;DHT22;29300;43.560;1.294;2022-12-13T06:37:07;4.60;99.90
43695;DHT22;29300;43.560;1.294;2022-12-13T06:39:35;4.70;99.90
43695;DHT22;29300;43.560;1.294;2022-12-13T06:42:02;4.70;99.90
43695;DHT22;29300;43.560;1.294;2022-12-13T06:44:30;4.70;99.90
43695;DHT22;29300;43.560;1.294;2022-12-13T06:46:57;4.80;99.90
43695;DHT22;29300;43.560;1.294;2022-12-13T06:49:22;4.70;99.90
43695;DHT22;29300;43.560;1.294;2022-12-13T06:51:48;4.80;99.90
43695;DHT22;29300;43.560;1.294;2022-12-13T06:54:14;4.80;99.90
43695;DHT22;29300;43.560;1.294;2022-12-13T06:56:39;4.80;99.90
43695;DHT22;29300;43.560;1.294;2022-12-13T06:59:05;4.80;99.90
43695;DHT22;29300;43.560;1.294;2022-12-13T07:01:32;4.80;99.90
43695;DHT22;29300;43.560;1.294;2022-12-13T07:03:57;4.80;99.90
43695;DHT22;29300;43.560;1.294;2022-12-13T07:06:25;4.80;99.90
43695;DHT22;29300;43.560;1.294;2022-12-13T07:08:56;4.90;99.90
43695;DHT22;29300;43.560;1.294;2022-12-13T07:11:25;4.90;99.90
43695;DHT22;29300;43.560;1.294;2022-12-13T07:13:51;4.90;99.90
43695;DHT22;29300;43.560;1.294;2022-12-13T07:16:18;4.90;99.90
43695;DHT22;29300;43.560;1.294;2022-12-13T07:18:44;4.90;99.90
43695;DHT22;29300;43.560;1.294;2022-12-13T07:21:12;4.90;99.90
43695;DHT22;29300;43.560;1.294;2022-12-13T07:23:39;4.80;99.90
43695;DHT22;29300;43.560;1.294;2022-12-13T07:26:06;4.80;99.90
43695;DHT22;29300;43.560;1.294;2022-12-13T07:28:33;4.80;99.90
43695;DHT22;29300;43.560;1.294;2022-12-13T07:31:00;4.80;99.90
43695;DHT22;29300;43.560;1.294;2022-12-13T07:33:27;4.70;99.90
43695;DHT22;29300;43.560;1.294;2022-12-13T07:36:04;4.70;99.90
43695;DHT22;29300;43.560;1.294;2022-12-13T07:38:32;4.70;99.90
43695;DHT22;29300;43.560;1.294;2022-12-13T07:40:58;4.70;99.90
43695;DHT22;29300;43.560;1.294;2022-12-13T07:43:24;4.60;99.90
43695;DHT22;29300;43.560;1.294;2022-12-13T07:45:50;4.70;99.90
43695;DHT22;29300;43.560;1.294;2022-12-13T07:48:16;4.60;99.90
43695;DHT22;29300;43.560;1.294;2022-12-13T07:50:42;4.70;99.90
43695;DHT22;29300;43.560;1.294;2022-12-13T07:53:08;4.70;99.90
43695;DHT22;29300;43.560;1.294;2022-12-13T07:55:34;4.70;99.90
43695;DHT22;29300;43.560;1.294;2022-12-13T07:58:11;4.80;99.90
43695;DHT22;29300;43.560;1.294;2022-12-13T08:00:41;4.70;99.90
43695;DHT22;29300;43.560;1.294;2022-12-13T08:03:07;4.80;99.90
43695;DHT22;29300;43.560;1.294;2022-12-13T08:05:34;4.70;99.90
43695;DHT22;29300;43.560;1.294;2022-12-13T08:08:01;4.80;99.90
43695;DHT22;29300;43.560;1.294;2022-12-13T08:10:27;4.80;99.90
43695;DHT22;29300;43.560;1.294;2022-12-13T08:12:53;4.90;99.90
43695;DHT22;29300;43.560;1.294;2022-12-13T08:15:18;5.00;99.90
43695;DHT22;29300;43.560;1.294;2022-12-13T08:17:46;5.00;99.90
43695;DHT22;29300;43.560;1.294;2022-12-13T08:20:12;5.10;99.90
43695;DHT22;29300;43.560;1.294;2022-12-13T08:22:37;5.10;99.90
43695;DHT22;29300;43.560;1.294;2022-12-13T08:25:03;5.20;99.90
43695;DHT22;29300;43.560;1.294;2022-12-13T08:27:31;5.30;99.90
43695;DHT22;29300;43.560;1.294;2022-12-13T08:29:56;5.40;99.90
43695;DHT22;29300;43.560;1.294;2022-12-13T08:32:22;5.50;99.90
43695;DHT22;29300;43.560;1.294;2022-12-13T08:34:48;5.60;99.90
43695;DHT22;29300;43.560;1.294;2022-12-13T08:37:14;5.60;99.90
43695;DHT22;29300;43.560;1.294;2022-12-13T08:39:40;5.70;99.90
43695;DHT22;29300;43.560;1.294;2022-12-13T08:42:09;5.80;99.90
43695;DHT22;29300;43.560;1.294;2022-12-13T08:44:35;5.90;99.90
43695;DHT22;29300;43.560;1.294;2022-12-13T08:47:01;5.90;99.90
43695;DHT22;29300;43.560;1.294;2022-12-13T08:49:26;5.90;99.90
43695;DHT22;29300;43.560;1.294;2022-12-13T08:51:52;6.00;99.90
43695;DHT22;29300;43.560;1.294;2022-12-13T08:54:18;6.00;99.90
43695;DHT22;29300;43.560;1.294;2022-12-13T08:56:44;6.10;99.90
43695;DHT22;29300;43.560;1.294;2022-12-13T08:59:10;6.10;99.90
43695;DHT22;29300;43.560;1.294;2022-12-13T09:01:35;6.10;99.90
43695;DHT22;29300;43.560;1.294;2022-12-13T09:04:01;6.20;99.90
43695;DHT22;29300;43.560;1.294;2022-12-13T09:06:27;6.30;99.90
43695;DHT22;29300;43.560;1.294;2022-12-13T09:08:53;6.50;99.90
43695;DHT22;29300;43.560;1.294;2022-12-13T09:11:19;6.60;99.90
43695;DHT22;29300;43.560;1.294;2022-12-13T09:13:46;6.70;99.90
43695;DHT22;29300;43.560;1.294;2022-12-13T09:16:14;6.80;99.90
43695;DHT22;29300;43.560;1.294;2022-12-13T09:18:41;7.00;99.90
43695;DHT22;29300;43.560;1.294;2022-12-13T09:21:08;7.10;99.90
43695;DHT22;29300;43.560;1.294;2022-12-13T09:23:34;7.20;99.90
43695;DHT22;29300;43.560;1.294;2022-12-13T09:26:00;7.10;99.90
43695;DHT22;29300;43.560;1.294;2022-12-13T09:28:27;7.10;99.90
43695;DHT22;29300;43.560;1.294;2022-12-13T09:30:57;7.20;99.90
43695;DHT22;29300;43.560;1.294;2022-12-13T09:33:23;7.20;99.90
43695;DHT22;29300;43.560;1.294;2022-12-13T09:35:51;7.30;99.90
43695;DHT22;29300;43.560;1.294;2022-12-13T09:38:17;7.30;99.90
43695;DHT22;29300;43.560;1.294;2022-12-13T09:40:44;7.50;99.90
43695;DHT22;29300;43.560;1.294;2022-12-13T09:43:18;7.50;99.90
43695;DHT22;29300;43.560;1.294;2022-12-13T09:45:45;7.50;99.90
43695;DHT22;29300;43.560;1.294;2022-12-13T09:48:20;7.60;99.90
43695;DHT22;29300;43.560;1.294;2022-12-13T09:50:47;7.70;99.90
43695;DHT22;29300;43.560;1.294;2022-12-13T09:53:16;7.70;99.90
43695;DHT22;29300;43.560;1.294;2022-12-13T09:55:45;7.60;99.90
43695;DHT22;29300;43.560;1.294;2022-12-13T09:58:24;7.60;99.90
43695;DHT22;29300;43.560;1.294;2022-12-13T10:00:52;7.70;99.90
43695;DHT22;29300;43.560;1.294;2022-12-13T10:03:19;7.80;99.90
43695;DHT22;29300;43.560;1.294;2022-12-13T10:05:56;7.80;99.90
43695;DHT22;29300;43.560;1.294;2022-12-13T10:08:27;7.80;99.90
43695;DHT22;29300;43.560;1.294;2022-12-13T10:10:56;7.90;99.90
43695;DHT22;29300;43.560;1.294;2022-12-13T10:14:05;7.90;99.90
43695;DHT22;29300;43.560;1.294;2022-12-13T10:19:01;7.80;99.90
43695;DHT22;29300;43.560;1.294;2022-12-13T10:21:33;8.00;99.90
43695;DHT22;29300;43.560;1.294;2022-12-13T10:24:20;8.00;99.90
43695;DHT22;29300;43.560;1.294;2022-12-13T10:26:47;8.10;99.90
43695;DHT22;29300;43.560;1.294;2022-12-13T10:29:13;8.10;99.90
43695;DHT22;29300;43.560;1.294;2022-12-13T10:31:43;8.10;99.90
43695;DHT22;29300;43.560;1.294;2022-12-13T10:36:44;8.30;99.90
43695;DHT22;29300;43.560;1.294;2022-12-13T10:39:16;8.30;99.90
43695;DHT22;29300;43.560;1.294;2022-12-13T10:41:43;8.60;99.90
43695;DHT22;29300;43.560;1.294;2022-12-13T10:46:40;8.70;99.90
43695;DHT22;29300;43.560;1.294;2022-12-13T10:49:23;8.70;99.90
43695;DHT22;29300;43.560;1.294;2022-12-13T10:51:50;8.70;99.90
43695;DHT22;29300;43.560;1.294;2022-12-13T10:54:36;8.70;99.90
43695;DHT22;29300;43.560;1.294;2022-12-13T10:57:03;8.80;99.90
43695;DHT22;29300;43.560;1.294;2022-12-13T10:59:37;8.80;99.90
43695;DHT22;29300;43.560;1.294;2022-12-13T11:07:45;9.00;99.90
43695;DHT22;29300;43.560;1.294;2022-12-13T11:10:37;9.00;99.90
43695;DHT22;29300;43.560;1.294;2022-12-13T11:13:05;9.00;99.90
43695;DHT22;29300;43.560;1.294;2022-12-13T11:15:34;9.20;99.90
43695;DHT22;29300;43.560;1.294;2022-12-13T11:18:06;9.40;99.90
43695;DHT22;29300;43.560;1.294;2022-12-13T11:20:35;9.40;99.90
43695;DHT22;29300;43.560;1.294;2022-12-13T11:23:05;9.40;99.90
43695;DHT22;29300;43.560;1.294;2022-12-13T11:25:38;9.40;99.90
43695;DHT22;29300;43.560;1.294;2022-12-13T11:30:42;9.60;99.90
43695;DHT22;29300;43.560;1.294;2022-12-13T11:35:52;9.70;99.90
43695;DHT22;29300;43.560;1.294;2022-12-13T11:41:16;10.10;99.90
43695;DHT22;29300;43.560;1.294;2022-12-13T11:43:51;10.20;99.90
43695;DHT22;29300;43.560;1.294;2022-12-13T11:46:34;10.10;99.90
43695;DHT22;29300;43.560;1.294;2022-12-13T11:49:07;10.00;99.90
43695;DHT22;29300;43.560;1.294;2022-12-13T11:51:47;10.10;99.90
43695;DHT22;29300;43.560;1.294;2022-12-13T11:54:21;10.10;99.90
43695;DHT22;29300;43.560;1.294;2022-12-13T11:56:47;10.10;99.90
43695;DHT22;29300;43.560;1.294;2022-12-13T12:02:43;10.20;99.90
43695;DHT22;29300;43.560;1.294;2022-12-13T12:04:52;10.20;99.90
43695;DHT22;29300;43.560;1.294;2022-12-13T12:07:43;10.20;99.90
43695;DHT22;29300;43.560;1.294;2022-12-13T12:12:41;10.30;99.90
43695;DHT22;29300;43.560;1.294;2022-12-13T12:15:18;10.30;99.90
43695;DHT22;29300;43.560;1.294;2022-12-13T12:17:46;10.30;99.90
43695;DHT22;29300;43.560;1.294;2022-12-13T12:20:15;10.40;99.90
43695;DHT22;29300;43.560;1.294;2022-12-13T12:26:12;10.20;99.90
43695;DHT22;29300;43.560;1.294;2022-12-13T12:28:56;10.10;99.90
43695;DHT22;29300;43.560;1.294;2022-12-13T12:31:56;10.10;99.90
43695;DHT22;29300;43.560;1.294;2022-12-13T12:35:07;10.10;99.90
43695;DHT22;29300;43.560;1.294;2022-12-13T12:37:52;10.10;99.90
43695;DHT22;29300;43.560;1.294;2022-12-13T12:40:30;10.10;99.90
43695;DHT22;29300;43.560;1.294;2022-12-13T12:43:10;10.10;99.90
43695;DHT22;29300;43.560;1.294;2022-12-13T12:53:36;10.00;99.90
43695;DHT22;29300;43.560;1.294;2022-12-13T13:04:10;10.10;99.90
43695;DHT22;29300;43.560;1.294;2022-12-13T13:06:40;10.10;99.90
43695;DHT22;29300;43.560;1.294;2022-12-13T13:09:10;10.10;99.90
43695;DHT22;29300;43.560;1.294;2022-12-13T13:11:38;10.10;99.90
43695;DHT22;29300;43.560;1.294;2022-12-13T13:16:47;10.10;99.90
43695;DHT22;29300;43.560;1.294;2022-12-13T13:21:46;10.10;99.90
43695;DHT22;29300;43.560;1.294;2022-12-13T13:34:36;10.20;99.90
43695;DHT22;29300;43.560;1.294;2022-12-13T13:42:19;10.20;99.90
43695;DHT22;29300;43.560;1.294;2022-12-13T14:30:42;10.20;99.90
43695;DHT22;29300;43.560;1.294;2022-12-13T14:33:18;10.20;99.90
43695;DHT22;29300;43.560;1.294;2022-12-13T14:36:00;10.20;99.90
43695;DHT22;29300;43.560;1.294;2022-12-13T14:38:30;10.20;99.90
43695;DHT22;29300;43.560;1.294;2022-12-13T14:40:59;10.20;99.90
43695;DHT22;29300;43.560;1.294;2022-12-13T14:43:27;10.20;99.90
43695;DHT22;29300;43.560;1.294;2022-12-13T14:46:01;10.30;99.90
43695;DHT22;29300;43.560;1.294;2022-12-13T14:48:44;10.20;99.90
43695;DHT22;29300;43.560;1.294;2022-12-13T14:51:31;10.20;99.90
43695;DHT22;29300;43.560;1.294;2022-12-13T14:53:58;10.20;99.90
43695;DHT22;29300;43.560;1.294;2022-12-13T14:56:24;10.20;99.90
43695;DHT22;29300;43.560;1.294;2022-12-13T14:58:59;10.20;99.90
43695;DHT22;29300;43.560;1.294;2022-12-13T15:03:50;10.20;99.90
43695;DHT22;29300;43.560;1.294;2022-12-13T15:06:17;10.20;99.90
43695;DHT22;29300;43.560;1.294;2022-12-13T15:08:45;10.10;99.90
43695;DHT22;29300;43.560;1.294;2022-12-13T15:11:12;10.10;99.90
43695;DHT22;29300;43.560;1.294;2022-12-13T15:13:46;10.10;99.90
43695;DHT22;29300;43.560;1.294;2022-12-13T15:16:26;10.00;99.90
43695;DHT22;29300;43.560;1.294;2022-12-13T15:19:14;9.90;99.90
43695;DHT22;29300;43.560;1.294;2022-12-13T15:21:40;9.90;99.90
43695;DHT22;29300;43.560;1.294;2022-12-13T15:24:06;9.90;99.90
43695;DHT22;29300;43.560;1.294;2022-12-13T15:26:32;9.80;99.90
43695;DHT22;29300;43.560;1.294;2022-12-13T15:29:05;9.80;99.90
43695;DHT22;29300;43.560;1.294;2022-12-13T15:31:32;9.80;99.90
43695;DHT22;29300;43.560;1.294;2022-12-13T15:36:46;9.70;99.90
43695;DHT22;29300;43.560;1.294;2022-12-13T15:39:11;9.60;99.90
43695;DHT22;29300;43.560;1.294;2022-12-13T15:41:43;9.50;99.90
43695;DHT22;29300;43.560;1.294;2022-12-13T15:47:10;9.50;99.90
43695;DHT22;29300;43.560;1.294;2022-12-13T15:49:43;9.40;99.90
43695;DHT22;29300;43.560;1.294;2022-12-13T15:54:39;9.30;99.90
43695;DHT22;29300;43.560;1.294;2022-12-13T15:57:15;9.30;99.90
43695;DHT22;29300;43.560;1.294;2022-12-13T15:59:46;9.20;99.90
43695;DHT22;29300;43.560;1.294;2022-12-13T16:04:42;9.20;99.90
43695;DHT22;29300;43.560;1.294;2022-12-13T16:07:24;9.10;99.90
43695;DHT22;29300;43.560;1.294;2022-12-13T16:09:53;9.10;99.90
43695;DHT22;29300;43.560;1.294;2022-12-13T16:12:23;9.10;99.90
43695;DHT22;29300;43.560;1.294;2022-12-13T16:14:50;9.00;99.90
43695;DHT22;29300;43.560;1.294;2022-12-13T16:17:25;9.00;99.90
43695;DHT22;29300;43.560;1.294;2022-12-13T16:19:52;9.00;99.90
43695;DHT22;29300;43.560;1.294;2022-12-13T16:22:18;9.00;99.90
43695;DHT22;29300;43.560;1.294;2022-12-13T16:24:47;9.00;99.90
43695;DHT22;29300;43.560;1.294;2022-12-13T16:27:13;8.90;99.90
43695;DHT22;29300;43.560;1.294;2022-12-13T16:29:39;8.90;99.90
43695;DHT22;29300;43.560;1.294;2022-12-13T16:32:05;8.80;99.90
43695;DHT22;29300;43.560;1.294;2022-12-13T16:34:30;8.80;99.90
43695;DHT22;29300;43.560;1.294;2022-12-13T16:36:56;8.80;99.90
43695;DHT22;29300;43.560;1.294;2022-12-13T16:39:24;8.80;99.90
43695;DHT22;29300;43.560;1.294;2022-12-13T16:41:50;8.80;99.90
43695;DHT22;29300;43.560;1.294;2022-12-13T16:44:46;8.80;99.90
43695;DHT22;29300;43.560;1.294;2022-12-13T16:47:12;8.70;99.90
43695;DHT22;29300;43.560;1.294;2022-12-13T16:49:38;8.70;99.90
43695;DHT22;29300;43.560;1.294;2022-12-13T16:52:04;8.70;99.90
43695;DHT22;29300;43.560;1.294;2022-12-13T16:54:32;8.70;99.90
43695;DHT22;29300;43.560;1.294;2022-12-13T16:56:58;8.70;99.90
43695;DHT22;29300;43.560;1.294;2022-12-13T16:59:25;8.70;99.90
43695;DHT22;29300;43.560;1.294;2022-12-13T17:01:51;8.60;99.90
43695;DHT22;29300;43.560;1.294;2022-12-13T17:04:22;8.60;99.90
43695;DHT22;29300;43.560;1.294;2022-12-13T17:06:49;8.60;99.90
43695;DHT22;29300;43.560;1.294;2022-12-13T17:09:15;8.70;99.90
43695;DHT22;29300;43.560;1.294;2022-12-13T17:11:41;8.60;99.90
43695;DHT22;29300;43.560;1.294;2022-12-13T17:14:07;8.60;99.90
43695;DHT22;29300;43.560;1.294;2022-12-13T17:16:32;8.50;99.90
43695;DHT22;29300;43.560;1.294;2022-12-13T17:18:58;8.50;99.90
43695;DHT22;29300;43.560;1.294;2022-12-13T17:21:24;8.50;99.90
43695;DHT22;29300;43.560;1.294;2022-12-13T17:23:57;8.40;99.90
43695;DHT22;29300;43.560;1.294;2022-12-13T17:26:24;8.40;99.90
43695;DHT22;29300;43.560;1.294;2022-12-13T17:28:51;8.40;99.90
43695;DHT22;29300;43.560;1.294;2022-12-13T17:31:17;8.30;99.90
43695;DHT22;29300;43.560;1.294;2022-12-13T17:33:43;8.30;99.90
43695;DHT22;29300;43.560;1.294;2022-12-13T17:36:10;8.20;99.90
43695;DHT22;29300;43.560;1.294;2022-12-13T17:38:40;8.20;99.90
43695;DHT22;29300;43.560;1.294;2022-12-13T17:41:06;8.10;99.90
43695;DHT22;29300;43.560;1.294;2022-12-13T17:43:32;8.10;99.90
43695;DHT22;29300;43.560;1.294;2022-12-13T17:46:06;8.20;99.90
43695;DHT22;29300;43.560;1.294;2022-12-13T17:48:33;8.10;99.90
43695;DHT22;29300;43.560;1.294;2022-12-13T17:50:59;8.10;99.90
43695;DHT22;29300;43.560;1.294;2022-12-13T17:53:24;8.10;99.90
43695;DHT22;29300;43.560;1.294;2022-12-13T17:55:57;8.10;99.90
43695;DHT22;29300;43.560;1.294;2022-12-13T17:58:24;8.10;99.90
43695;DHT22;29300;43.560;1.294;2022-12-13T18:00:50;8.20;99.90
43695;DHT22;29300;43.560;1.294;2022-12-13T18:03:16;8.20;99.90
43695;DHT22;29300;43.560;1.294;2022-12-13T18:05:42;8.20;99.90
43695;DHT22;29300;43.560;1.294;2022-12-13T18:08:07;8.10;99.90
43695;DHT22;29300;43.560;1.294;2022-12-13T18:10:33;8.00;99.90
43695;DHT22;29300;43.560;1.294;2022-12-13T18:12:59;8.00;99.90
43695;DHT22;29300;43.560;1.294;2022-12-13T18:15:24;8.00;99.90
43695;DHT22;29300;43.560;1.294;2022-12-13T18:17:50;8.00;99.90
43695;DHT22;29300;43.560;1.294;2022-12-13T18:20:16;8.00;99.90
43695;DHT22;29300;43.560;1.294;2022-12-13T18:22:42;8.00;99.90
43695;DHT22;29300;43.560;1.294;2022-12-13T18:25:07;8.10;99.90
43695;DHT22;29300;43.560;1.294;2022-12-13T18:27:34;8.10;99.90
43695;DHT22;29300;43.560;1.294;2022-12-13T18:29:59;8.10;99.90